createdAt,value
2022-07-28T04:00:35.704Z,64.00
2022-07-28T04:01:35.728Z,68.00
2022-07-28T04:02:35.762Z,72.00
2022-07-28T04:03:43.571Z,76.00
2022-07-28T04:04:36.639Z,80.00
2022-07-28T04:05:35.622Z,88.00
2022-07-28T04:06:35.606Z,92.00
2022-07-28T04:07:35.591Z,100.00
2022-07-28T04:08:35.590Z,104.00
2022-07-28T04:09:35.580Z,108.00
2022-07-28T04:10:35.558Z,112.00
2022-07-28T04:11:40.582Z,116.00
2022-07-28T04:12:35.536Z,124.00
2022-07-28T04:13:35.523Z,140.00
2022-07-28T04:14:35.528Z,156.00
2022-07-28T04:15:35.508Z,160.00
2022-07-28T04:16:35.539Z,156.00
2022-07-28T04:17:35.488Z,156.00
2022-07-28T04:18:35.472Z,164.00
2022-07-28T04:19:35.466Z,176.00
2022-07-28T04:20:35.453Z,176.00
2022-07-28T04:21:35.435Z,176.00
2022-07-28T04:22:40.450Z,180.00
2022-07-28T04:23:35.414Z,188.00
2022-07-28T04:24:35.418Z,204.00
2022-07-28T04:25:35.389Z,224.00
2022-07-28T04:26:35.380Z,240.00
2022-07-28T04:27:35.368Z,260.00
2022-07-28T04:28:35.361Z,284.00
2022-07-28T04:29:35.347Z,320.00
2022-07-28T04:30:35.437Z,356.00
2022-07-28T04:31:36.324Z,384.00
2022-07-28T04:32:35.314Z,396.00
2022-07-28T04:33:40.325Z,396.00
2022-07-28T04:34:35.293Z,404.00
2022-07-28T04:35:35.287Z,416.00
2022-07-28T04:36:35.312Z,420.00
2022-07-28T04:37:35.256Z,424.00
2022-07-28T04:38:35.273Z,428.00
2022-07-28T04:39:35.238Z,444.00
2022-07-28T04:40:35.245Z,452.00
2022-07-28T04:41:35.214Z,480.00
2022-07-28T04:42:35.203Z,504.00
2022-07-28T04:43:35.191Z,516.00
2022-07-28T04:44:40.202Z,540.00
2022-07-28T04:45:35.221Z,556.00
2022-07-28T04:46:35.202Z,552.00
2022-07-28T04:47:35.149Z,540.00
2022-07-28T04:48:35.239Z,524.00
2022-07-28T04:49:35.498Z,532.00
2022-07-28T04:50:35.129Z,548.00
2022-07-28T04:51:35.102Z,576.00
2022-07-28T04:52:35.092Z,568.00
2022-07-28T04:53:35.078Z,592.00
2022-07-28T04:54:35.069Z,620.00
2022-07-28T04:55:40.089Z,648.00
2022-07-28T04:56:35.066Z,676.00
2022-07-28T04:57:35.036Z,704.00
2022-07-28T04:58:35.026Z,704.00
2022-07-28T04:59:35.012Z,772.00
2022-07-28T05:00:35.014Z,804.00
2022-07-28T05:01:35.032Z,872.00
2022-07-28T05:02:34.979Z,848.00
2022-07-28T05:03:36.418Z,812.00
2022-07-28T05:04:35.214Z,856.00
2022-07-28T05:05:34.957Z,884.00
2022-07-28T05:06:39.960Z,868.00
2022-07-28T05:07:34.922Z,896.00
2022-07-28T05:08:34.913Z,932.00
2022-07-28T05:09:34.902Z,940.00
2022-07-28T05:10:34.898Z,988.00
2022-07-28T05:11:34.877Z,984.00
2022-07-28T05:12:34.868Z,996.00
2022-07-28T05:13:34.854Z,988.00
2022-07-28T05:14:34.844Z,980.00
2022-07-28T05:15:34.842Z,1008.00
2022-07-28T05:16:34.856Z,1012.00
2022-07-28T05:17:39.831Z,980.00
2022-07-28T05:18:34.815Z,972.00
2022-07-28T05:19:34.787Z,916.00
2022-07-28T05:20:34.789Z,896.00
2022-07-28T05:21:34.769Z,944.00
2022-07-28T05:22:34.757Z,988.00
2022-07-28T05:23:34.744Z,928.00
2022-07-28T05:24:34.734Z,904.00
2022-07-28T05:25:34.730Z,984.00
2022-07-28T05:26:34.712Z,1060.00
2022-07-28T05:27:34.700Z,1148.00
2022-07-28T05:28:39.712Z,1236.00
2022-07-28T05:29:46.708Z,1288.00
2022-07-28T05:30:35.676Z,1264.00
2022-07-28T05:31:34.755Z,1316.00
2022-07-28T05:32:34.644Z,1480.00
2022-07-28T05:33:34.631Z,1596.00
2022-07-28T05:34:34.623Z,1548.00
2022-07-28T05:35:34.625Z,1328.00
2022-07-28T05:36:34.602Z,1384.00
2022-07-28T05:37:34.597Z,1356.00
2022-07-28T05:38:34.579Z,1344.00
2022-07-28T05:39:39.591Z,1416.00
2022-07-28T05:40:34.560Z,1404.00
2022-07-28T05:41:34.550Z,1376.00
2022-07-28T05:42:34.536Z,1464.00
2022-07-28T05:43:34.523Z,1476.00
2022-07-28T05:44:38.296Z,1456.00
2022-07-28T05:45:34.596Z,1452.00
2022-07-28T05:46:34.499Z,1380.00
2022-07-28T05:47:34.488Z,1336.00
2022-07-28T05:48:34.510Z,1412.00
2022-07-28T05:49:34.454Z,1536.00
2022-07-28T05:50:39.468Z,1564.00
2022-07-28T05:51:38.363Z,1492.00
2022-07-28T05:52:35.441Z,1404.00
2022-07-28T05:53:34.409Z,1276.00
2022-07-28T05:54:34.408Z,1216.00
2022-07-28T05:55:34.419Z,1268.00
2022-07-28T05:56:34.389Z,1304.00
2022-07-28T05:57:34.365Z,1392.00
2022-07-28T05:58:34.354Z,1520.00
2022-07-28T05:59:34.429Z,1624.00
2022-07-28T06:00:34.332Z,1760.00
2022-07-28T06:01:39.405Z,1972.00
2022-07-28T06:02:34.454Z,2092.00
2022-07-28T06:03:39.790Z,2072.00
2022-07-28T06:04:35.772Z,2104.00
2022-07-28T06:05:34.319Z,2076.00
2022-07-28T06:06:35.273Z,2112.00
2022-07-28T06:07:43.581Z,1984.00
2022-07-28T06:08:35.243Z,2024.00
2022-07-28T06:09:34.235Z,2108.00
2022-07-28T06:10:34.222Z,1964.00
2022-07-28T06:11:34.221Z,1960.00
2022-07-28T06:12:39.218Z,1788.00
2022-07-28T06:13:34.186Z,1580.00
2022-07-28T06:14:34.176Z,1588.00
2022-07-28T06:15:34.166Z,1608.00
2022-07-28T06:16:34.197Z,1728.00
2022-07-28T06:17:34.146Z,1604.00
2022-07-28T06:18:34.133Z,1724.00
2022-07-28T06:19:34.135Z,1892.00
2022-07-28T06:20:34.110Z,2116.00
2022-07-28T06:21:34.109Z,2232.00
2022-07-28T06:22:34.097Z,2336.00
2022-07-28T06:23:39.106Z,2376.00
2022-07-28T06:24:34.063Z,2504.00
2022-07-28T06:25:34.052Z,2536.00
2022-07-28T06:26:34.054Z,2632.00
2022-07-28T06:27:34.032Z,2696.00
2022-07-28T06:28:34.025Z,2868.00
2022-07-28T06:29:34.018Z,2952.00
2022-07-28T06:30:34.006Z,2924.00
2022-07-28T06:31:34.044Z,2928.00
2022-07-28T06:32:33.979Z,2968.00
2022-07-28T06:33:33.968Z,3084.00
2022-07-28T06:34:38.998Z,3196.00
2022-07-28T06:35:43.269Z,3252.00
2022-07-28T06:36:34.943Z,3592.00
2022-07-28T06:37:33.923Z,3620.00
2022-07-28T06:38:33.909Z,3360.00
2022-07-28T06:39:33.902Z,3576.00
2022-07-28T06:40:33.886Z,3072.00
2022-07-28T06:41:33.911Z,2504.00
2022-07-28T06:42:33.867Z,2948.00
2022-07-28T06:43:36.837Z,3380.00
2022-07-28T06:44:57.293Z,3216.00
2022-07-28T06:45:39.852Z,3648.00
2022-07-28T06:46:33.956Z,4000.00
2022-07-28T06:47:33.829Z,3232.00
2022-07-28T06:48:33.860Z,2284.00
2022-07-28T06:49:33.786Z,2340.00
2022-07-28T06:50:33.783Z,2092.00
2022-07-28T06:51:33.791Z,2264.00
2022-07-28T06:52:33.756Z,2320.00
2022-07-28T06:53:34.806Z,2312.00
2022-07-28T06:54:33.730Z,2280.00
2022-07-28T06:55:35.089Z,2248.00
2022-07-28T06:56:38.746Z,2364.00
2022-07-28T06:57:33.930Z,2592.00
2022-07-28T06:58:33.685Z,2652.00
2022-07-28T06:59:33.677Z,2780.00
2022-07-28T07:00:33.786Z,2876.00
2022-07-28T07:01:33.805Z,3172.00
2022-07-28T07:02:33.665Z,3164.00
2022-07-28T07:03:33.635Z,3152.00
2022-07-28T07:04:33.708Z,3492.00
2022-07-28T07:05:33.614Z,3512.00
2022-07-28T07:06:33.605Z,3616.00
2022-07-28T07:07:42.982Z,3592.00
2022-07-28T07:08:33.580Z,3784.00
2022-07-28T07:09:33.577Z,3828.00
2022-07-28T07:10:33.555Z,3612.00
2022-07-28T07:11:33.543Z,3948.00
2022-07-28T07:12:33.540Z,3780.00
2022-07-28T07:13:33.535Z,3688.00
2022-07-28T07:14:33.508Z,3596.00
2022-07-28T07:15:35.027Z,3840.00
2022-07-28T07:16:33.579Z,4404.00
2022-07-28T07:17:33.521Z,4800.00
2022-07-28T07:18:38.490Z,4232.00
2022-07-28T07:19:33.459Z,4192.00
2022-07-28T07:20:33.450Z,4224.00
2022-07-28T07:21:33.454Z,4040.00
2022-07-28T07:22:33.422Z,4088.00
2022-07-28T07:23:33.429Z,3856.00
2022-07-28T07:24:33.398Z,3612.00
2022-07-28T07:25:33.394Z,3548.00
2022-07-28T07:26:33.395Z,3384.00
2022-07-28T07:27:33.381Z,3444.00
2022-07-28T07:28:33.353Z,3188.00
2022-07-28T07:29:38.365Z,3244.00
2022-07-28T07:30:33.363Z,3596.00
2022-07-28T07:31:33.385Z,3572.00
2022-07-28T07:32:33.320Z,3760.00
2022-07-28T07:33:33.303Z,3932.00
2022-07-28T07:34:33.292Z,3936.00
2022-07-28T07:35:33.411Z,3988.00
2022-07-28T07:36:33.271Z,3860.00
2022-07-28T07:37:33.279Z,3760.00
2022-07-28T07:38:33.245Z,3512.00
2022-07-28T07:39:33.264Z,3348.00
2022-07-28T07:40:38.246Z,3144.00
2022-07-28T07:41:33.211Z,3152.00
2022-07-28T07:42:33.213Z,3244.00
2022-07-28T07:43:33.259Z,3356.00
2022-07-28T07:44:33.182Z,3540.00
2022-07-28T07:45:33.167Z,3744.00
2022-07-28T07:46:33.315Z,3912.00
2022-07-28T07:47:33.152Z,3612.00
2022-07-28T07:48:33.389Z,3408.00
2022-07-28T07:49:45.093Z,2936.00
2022-07-28T07:50:34.107Z,2644.00
2022-07-28T07:51:38.165Z,2512.00
2022-07-28T07:52:33.098Z,2404.00
2022-07-28T07:53:33.080Z,2236.00
2022-07-28T07:54:33.108Z,2220.00
2022-07-28T07:55:37.459Z,2428.00
2022-07-28T07:56:33.051Z,3032.00
2022-07-28T07:57:33.060Z,3276.00
2022-07-28T07:58:33.025Z,3140.00
2022-07-28T07:59:33.009Z,3424.00
2022-07-28T08:00:33.045Z,3444.00
2022-07-28T08:01:33.103Z,3336.00
2022-07-28T08:02:38.009Z,3316.00
2022-07-28T08:03:32.967Z,3204.00
2022-07-28T08:04:37.399Z,3364.00
2022-07-28T08:05:35.974Z,3424.00
2022-07-28T08:06:32.992Z,3504.00
2022-07-28T08:07:32.996Z,3572.00
2022-07-28T08:08:37.303Z,3448.00
2022-07-28T08:09:33.898Z,3452.00
2022-07-28T08:10:32.943Z,3588.00
2022-07-28T08:11:32.954Z,3472.00
2022-07-28T08:12:32.959Z,3368.00
2022-07-28T08:13:37.879Z,3148.00
2022-07-28T08:14:32.917Z,2980.00
2022-07-28T08:15:32.833Z,2916.00
2022-07-28T08:16:32.889Z,3044.00
2022-07-28T08:17:32.826Z,2892.00
2022-07-28T08:18:32.814Z,2684.00
2022-07-28T08:19:32.804Z,2452.00
2022-07-28T08:20:32.780Z,2320.00
2022-07-28T08:21:32.772Z,2404.00
2022-07-28T08:22:32.759Z,2748.00
2022-07-28T08:23:32.764Z,3352.00
2022-07-28T08:24:37.758Z,3732.00
2022-07-28T08:25:32.723Z,3908.00
2022-07-28T08:26:32.712Z,4196.00
2022-07-28T08:27:32.721Z,4288.00
2022-07-28T08:28:32.706Z,4208.00
2022-07-28T08:29:32.682Z,4048.00
2022-07-28T08:30:33.252Z,4164.00
2022-07-28T08:31:32.771Z,4600.00
2022-07-28T08:32:32.641Z,5540.00
2022-07-28T08:33:32.644Z,5632.00
2022-07-28T08:34:33.765Z,5300.00
2022-07-28T08:35:37.644Z,5252.00
2022-07-28T08:36:32.598Z,4904.00
2022-07-28T08:37:32.589Z,4336.00
2022-07-28T08:38:32.626Z,3900.00
2022-07-28T08:39:32.567Z,3432.00
2022-07-28T08:40:32.804Z,3548.00
2022-07-28T08:41:33.387Z,3528.00
2022-07-28T08:42:32.538Z,3812.00
2022-07-28T08:43:32.567Z,3940.00
2022-07-28T08:44:32.514Z,3820.00
2022-07-28T08:45:37.016Z,3584.00
2022-07-28T08:46:37.608Z,3560.00
2022-07-28T08:48:07.654Z,3256.00
2022-07-28T08:48:33.589Z,3992.00
2022-07-28T08:49:32.459Z,4344.00
2022-07-28T08:50:32.445Z,4364.00
2022-07-28T08:51:32.440Z,4572.00
2022-07-28T08:52:32.428Z,4860.00
2022-07-28T08:53:32.426Z,4884.00
2022-07-28T08:54:32.403Z,17824.00
2022-07-28T08:55:32.575Z,22944.00
2022-07-28T08:56:32.614Z,11100.00
2022-07-28T08:57:37.398Z,11556.00
2022-07-28T08:58:32.376Z,18496.00
2022-07-28T08:59:32.347Z,9104.00
2022-07-28T09:00:32.341Z,4968.00
2022-07-28T09:01:38.643Z,4904.00
2022-07-28T09:02:33.466Z,5968.00
2022-07-28T09:03:32.399Z,6468.00
2022-07-28T09:04:32.298Z,7396.00
2022-07-28T09:05:32.289Z,6076.00
2022-07-28T09:06:32.372Z,6700.00
2022-07-28T09:07:32.297Z,7428.00
2022-07-28T09:08:37.283Z,5840.00
2022-07-28T09:09:32.239Z,8052.00
2022-07-28T09:10:32.226Z,6424.00
2022-07-28T09:11:32.221Z,6304.00
2022-07-28T09:12:32.202Z,6240.00
2022-07-28T09:13:32.193Z,7460.00
2022-07-28T09:14:32.209Z,6504.00
2022-07-28T09:15:32.230Z,7172.00
2022-07-28T09:16:32.301Z,6324.00
2022-07-28T09:17:32.152Z,5352.00
2022-07-28T09:18:32.145Z,4148.00
2022-07-28T09:19:37.161Z,3344.00
2022-07-28T09:20:32.118Z,3448.00
2022-07-28T09:21:32.106Z,3876.00
2022-07-28T09:22:32.095Z,3600.00
2022-07-28T09:23:43.244Z,3096.00
2022-07-28T09:24:33.085Z,3164.00
2022-07-28T09:25:32.061Z,3160.00
2022-07-28T09:26:32.055Z,3532.00
2022-07-28T09:27:32.041Z,4020.00
2022-07-28T09:28:32.029Z,4528.00
2022-07-28T09:29:32.029Z,11816.00
2022-07-28T09:30:37.028Z,12800.00
2022-07-28T09:31:32.038Z,14208.00
2022-07-28T09:32:32.000Z,4440.00
2022-07-28T09:33:41.799Z,6764.00
2022-07-28T09:34:32.982Z,7668.00
2022-07-28T09:35:31.951Z,13224.00
2022-07-28T09:36:31.939Z,5340.00
2022-07-28T09:37:31.935Z,7044.00
2022-07-28T09:38:31.921Z,16384.00
2022-07-28T09:39:31.943Z,8644.00
2022-07-28T09:40:31.896Z,24544.00
2022-07-28T09:41:36.910Z,53856.00
2022-07-28T09:42:31.879Z,71104.00
2022-07-28T09:43:31.880Z,48768.00
2022-07-28T09:44:31.879Z,76928.00
2022-07-28T09:45:31.841Z,40000.00
2022-07-28T09:46:32.196Z,16768.00
2022-07-28T09:47:32.245Z,14612.00
2022-07-28T09:48:31.998Z,10924.00
2022-07-28T09:49:31.921Z,16064.00
2022-07-28T09:50:31.841Z,11460.00
2022-07-28T09:51:31.778Z,34304.00
2022-07-28T09:52:36.810Z,31808.00
2022-07-28T09:53:31.755Z,8212.00
2022-07-28T09:54:31.754Z,9308.00
2022-07-28T09:55:31.735Z,8312.00
2022-07-28T09:56:31.739Z,6612.00
2022-07-28T09:57:31.713Z,24896.00
2022-07-28T09:58:31.702Z,9704.00
2022-07-28T09:59:31.711Z,9172.00
2022-07-28T10:00:31.700Z,18304.00
2022-07-28T10:01:35.752Z,6636.00
2022-07-28T10:02:32.728Z,14172.00
2022-07-28T10:03:36.671Z,5996.00
2022-07-28T10:04:31.665Z,6212.00
2022-07-28T10:05:31.634Z,6444.00
2022-07-28T10:06:31.614Z,6564.00
2022-07-28T10:07:31.603Z,7540.00
2022-07-28T10:08:31.603Z,7148.00
2022-07-28T10:09:31.590Z,7880.00
2022-07-28T10:10:31.567Z,7668.00
2022-07-28T10:11:31.583Z,7888.00
2022-07-28T10:12:31.549Z,8024.00
2022-07-28T10:13:31.542Z,8164.00
2022-07-28T10:14:36.589Z,8568.00
2022-07-28T10:15:31.652Z,8848.00
2022-07-28T10:16:31.657Z,8924.00
2022-07-28T10:17:31.514Z,8968.00
2022-07-28T10:18:31.499Z,9204.00
2022-07-28T10:19:31.487Z,8580.00
2022-07-28T10:20:31.468Z,8668.00
2022-07-28T10:21:31.452Z,7944.00
2022-07-28T10:22:31.444Z,8016.00
2022-07-28T10:23:31.430Z,7868.00
2022-07-28T10:24:31.440Z,7964.00
2022-07-28T10:25:36.440Z,7928.00
2022-07-28T10:26:31.393Z,8324.00
2022-07-28T10:27:31.379Z,7968.00
2022-07-28T10:28:31.403Z,7656.00
2022-07-28T10:29:31.372Z,7372.00
2022-07-28T10:30:31.397Z,7324.00
2022-07-28T10:31:31.466Z,7448.00
2022-07-28T10:32:31.343Z,8676.00
2022-07-28T10:33:31.320Z,7264.00
2022-07-28T10:34:31.315Z,7688.00
2022-07-28T10:35:31.292Z,7604.00
2022-07-28T10:36:36.361Z,7524.00
2022-07-28T10:37:31.270Z,7100.00
2022-07-28T10:38:31.259Z,7376.00
2022-07-28T10:39:31.257Z,6996.00
2022-07-28T10:40:31.241Z,7112.00
2022-07-28T10:41:31.225Z,7048.00
2022-07-28T10:42:31.215Z,6680.00
2022-07-28T10:43:31.207Z,6320.00
2022-07-28T10:44:31.220Z,6412.00
2022-07-28T10:46:02.641Z,6908.00
2022-07-28T10:46:32.240Z,6936.00
2022-07-28T10:47:36.577Z,6824.00
2022-07-28T10:48:31.157Z,6712.00
2022-07-28T10:49:32.733Z,7056.00
2022-07-28T10:50:31.131Z,7008.00
2022-07-28T10:51:31.122Z,7100.00
2022-07-28T10:52:46.897Z,7264.00
2022-07-28T10:53:32.101Z,7620.00
2022-07-28T10:54:31.095Z,7636.00
2022-07-28T10:55:31.664Z,7560.00
2022-07-28T10:56:31.064Z,7904.00
2022-07-28T10:57:31.059Z,11688.00
2022-07-28T10:58:36.067Z,20160.00
2022-07-28T10:59:31.042Z,13628.00
2022-07-28T11:00:46.644Z,11112.00
2022-07-28T11:01:47.683Z,10492.00
2022-07-28T11:02:32.159Z,9632.00
2022-07-28T11:03:31.178Z,8888.00
2022-07-28T11:04:30.989Z,7984.00
2022-07-28T11:05:30.962Z,8300.00
2022-07-28T11:06:30.987Z,10564.00
2022-07-28T11:07:30.993Z,8068.00
2022-07-28T11:08:30.973Z,13320.00
2022-07-28T11:09:35.954Z,17120.00
2022-07-28T11:10:30.909Z,13436.00
2022-07-28T11:11:30.897Z,8484.00
2022-07-28T11:12:31.889Z,6868.00
2022-07-28T11:13:33.035Z,13708.00
2022-07-28T11:14:30.869Z,13588.00
2022-07-28T11:15:32.164Z,9244.00
2022-07-28T11:16:36.057Z,79296.00
2022-07-28T11:17:33.399Z,83232.00
2022-07-28T11:18:30.822Z,94528.00
2022-07-28T11:19:40.271Z,94592.00
2022-07-28T11:20:36.846Z,91200.00
2022-07-28T11:21:39.502Z,87712.00
2022-07-28T11:22:32.114Z,91840.00
2022-07-28T11:23:30.788Z,90528.00
2022-07-28T11:24:30.766Z,84448.00
2022-07-28T11:25:30.763Z,86272.00
2022-07-28T11:26:30.738Z,89504.00
2022-07-28T11:27:30.727Z,86976.00
2022-07-28T11:28:30.715Z,82336.00
2022-07-28T11:29:30.703Z,82304.00
2022-07-28T11:30:30.733Z,83936.00
2022-07-28T11:31:30.693Z,83136.00
2022-07-28T11:32:40.808Z,82080.00
2022-07-28T11:33:36.682Z,83008.00
2022-07-28T11:34:31.672Z,84032.00
2022-07-28T11:35:30.677Z,80800.00
2022-07-28T11:36:30.638Z,84416.00
2022-07-28T11:37:30.627Z,34208.00
2022-07-28T11:38:30.612Z,29024.00
2022-07-28T11:39:30.600Z,22656.00
2022-07-28T11:40:31.616Z,10396.00
2022-07-28T11:41:30.746Z,11224.00
2022-07-28T11:42:30.815Z,10712.00
2022-07-28T11:43:37.436Z,8760.00
2022-07-28T11:44:31.556Z,8732.00
2022-07-28T11:45:37.763Z,14140.00
2022-07-28T11:46:37.572Z,11060.00
2022-07-28T11:47:30.529Z,11988.00
2022-07-28T11:48:30.507Z,11472.00
2022-07-28T11:49:30.581Z,11812.00
2022-07-28T11:50:30.498Z,11384.00
2022-07-28T11:51:30.472Z,11004.00
2022-07-28T11:52:30.530Z,11140.00
2022-07-28T11:53:30.451Z,30784.00
2022-07-28T11:54:30.447Z,12728.00
2022-07-28T11:55:55.391Z,22976.00
2022-07-28T11:56:31.421Z,13512.00
2022-07-28T11:57:35.432Z,22240.00
2022-07-28T11:58:30.424Z,34144.00
2022-07-28T11:59:36.904Z,39872.00
2022-07-28T12:00:31.396Z,28384.00
2022-07-28T12:01:31.827Z,48960.00
2022-07-28T12:02:30.468Z,55136.00
2022-07-28T12:03:38.605Z,30656.00
2022-07-28T12:04:31.649Z,35360.00
2022-07-28T12:05:34.286Z,70720.00
2022-07-28T12:06:31.328Z,66944.00
2022-07-28T12:07:30.764Z,55776.00
2022-07-28T12:08:30.294Z,53824.00
2022-07-28T12:09:39.772Z,54048.00
2022-07-28T12:10:53.899Z,50592.00
2022-07-28T12:11:31.288Z,37856.00
2022-07-28T12:12:30.280Z,24928.00
2022-07-28T12:13:30.242Z,11728.00
2022-07-28T12:14:30.233Z,39648.00
2022-07-28T12:15:30.221Z,53472.00
2022-07-28T12:16:30.316Z,17888.00
2022-07-28T12:17:30.229Z,11220.00
2022-07-28T12:18:30.190Z,69376.00
2022-07-28T12:19:32.723Z,62880.00
2022-07-28T12:20:30.170Z,71712.00
2022-07-28T12:21:30.166Z,73088.00
2022-07-28T12:22:30.152Z,77216.00
2022-07-28T12:23:45.839Z,55392.00
2022-07-28T12:24:31.156Z,69952.00
2022-07-28T12:25:31.113Z,70240.00
2022-07-28T12:26:31.149Z,64576.00
2022-07-28T12:27:31.887Z,46304.00
2022-07-28T12:28:30.086Z,53344.00
2022-07-28T12:29:35.561Z,39616.00
2022-07-28T12:30:31.066Z,65344.00
2022-07-28T12:31:30.154Z,65568.00
2022-07-28T12:32:30.042Z,58752.00
2022-07-28T12:33:30.043Z,45568.00
2022-07-28T12:34:30.037Z,26880.00
2022-07-28T12:35:30.012Z,12588.00
2022-07-28T12:36:35.034Z,10732.00
2022-07-28T12:37:29.992Z,9716.00
2022-07-28T12:38:29.984Z,9500.00
2022-07-28T12:39:29.969Z,9692.00
2022-07-28T12:40:29.963Z,10424.00
2022-07-28T12:41:29.989Z,8840.00
2022-07-28T12:42:29.939Z,9144.00
2022-07-28T12:43:29.929Z,9032.00
2022-07-28T12:44:29.917Z,8512.00
2022-07-28T12:45:29.953Z,5884.00
2022-07-28T12:46:29.909Z,4416.00
2022-07-28T12:47:34.906Z,4528.00
2022-07-28T12:48:29.878Z,4980.00
2022-07-28T12:49:29.863Z,6332.00
2022-07-28T12:50:29.943Z,6136.00
2022-07-28T12:51:29.852Z,6276.00
2022-07-28T12:52:29.861Z,6368.00
2022-07-28T12:53:29.825Z,5792.00
2022-07-28T12:54:29.814Z,4900.00
2022-07-28T12:55:29.802Z,5060.00
2022-07-28T12:56:29.811Z,5272.00
2022-07-28T12:57:29.787Z,5808.00
2022-07-28T12:58:34.797Z,7088.00
2022-07-28T12:59:29.781Z,6620.00
2022-07-28T13:00:29.781Z,6448.00
2022-07-28T13:01:29.777Z,6984.00
2022-07-28T13:02:29.825Z,7224.00
2022-07-28T13:03:29.715Z,7060.00
2022-07-28T13:04:29.732Z,6804.00
2022-07-28T13:05:29.698Z,5300.00
2022-07-28T13:06:29.685Z,4460.00
2022-07-28T13:07:29.707Z,3788.00
2022-07-28T13:08:29.731Z,3776.00
2022-07-28T13:09:32.864Z,4088.00
2022-07-28T13:10:31.286Z,5012.00
2022-07-28T13:11:45.878Z,6044.00
2022-07-28T13:12:30.673Z,7468.00
2022-07-28T13:13:29.633Z,8028.00
2022-07-28T13:14:29.603Z,7232.00
2022-07-28T13:15:29.592Z,5652.00
2022-07-28T13:16:29.645Z,4524.00
2022-07-28T13:17:29.635Z,4348.00
2022-07-28T13:18:29.612Z,4544.00
2022-07-28T13:19:29.562Z,4876.00
2022-07-28T13:20:29.535Z,5616.00
2022-07-28T13:21:29.524Z,6664.00
2022-07-28T13:22:29.528Z,6788.00
2022-07-28T13:23:29.502Z,6224.00
2022-07-28T13:24:34.528Z,5984.00
2022-07-28T13:25:29.503Z,6008.00
2022-07-28T13:26:29.499Z,6040.00
2022-07-28T13:27:29.466Z,5824.00
2022-07-28T13:28:29.449Z,5764.00
2022-07-28T13:29:29.439Z,5668.00
2022-07-28T13:30:29.430Z,5648.00
2022-07-28T13:31:29.525Z,5616.00
2022-07-28T13:32:29.617Z,5384.00
2022-07-28T13:33:29.581Z,5240.00
2022-07-28T13:34:29.388Z,4864.00
2022-07-28T13:35:29.380Z,4440.00
2022-07-28T13:36:29.675Z,3972.00
2022-07-28T13:37:34.389Z,3592.00
2022-07-28T13:38:29.369Z,3736.00
2022-07-28T13:39:29.401Z,4088.00
2022-07-28T13:40:29.318Z,4352.00
2022-07-28T13:41:57.020Z,4432.00
2022-07-28T13:42:30.306Z,4156.00
2022-07-28T13:43:36.015Z,3756.00
2022-07-28T13:44:30.405Z,3548.00
2022-07-28T13:45:30.266Z,3628.00
2022-07-28T13:46:29.256Z,3524.00
2022-07-28T13:47:35.782Z,3080.00
2022-07-28T13:48:30.238Z,3072.00
2022-07-28T13:49:29.332Z,3620.00
2022-07-28T13:50:34.234Z,4196.00
2022-07-28T13:51:29.202Z,4928.00
2022-07-28T13:52:34.618Z,5416.00
2022-07-28T13:53:30.179Z,5912.00
2022-07-28T13:54:29.177Z,5976.00
2022-07-28T13:55:29.200Z,5904.00
2022-07-28T13:56:29.146Z,5880.00
2022-07-28T13:57:29.148Z,5488.00
2022-07-28T13:58:29.128Z,5348.00
2022-07-28T13:59:29.112Z,5184.00
2022-07-28T14:00:29.109Z,4848.00
2022-07-28T14:01:35.069Z,4544.00
2022-07-28T14:02:29.129Z,4228.00
2022-07-28T14:03:29.129Z,4040.00
2022-07-28T14:04:30.060Z,4052.00
2022-07-28T14:05:32.057Z,4144.00
2022-07-28T14:06:29.040Z,4152.00
2022-07-28T14:07:29.027Z,4160.00
2022-07-28T14:08:29.029Z,4100.00
2022-07-28T14:09:29.009Z,4048.00
2022-07-28T14:10:29.000Z,3928.00
2022-07-28T14:11:28.988Z,3888.00
2022-07-28T14:12:34.996Z,3820.00
2022-07-28T14:13:31.723Z,3752.00
2022-07-28T14:14:29.953Z,3632.00
2022-07-28T14:15:28.943Z,3488.00
2022-07-28T14:16:28.971Z,3412.00
2022-07-28T14:17:46.028Z,3292.00
2022-07-28T14:18:29.921Z,3140.00
2022-07-28T14:19:38.580Z,3024.00
2022-07-28T14:20:29.892Z,2956.00
2022-07-28T14:21:28.878Z,2832.00
2022-07-28T14:22:28.874Z,2776.00
2022-07-28T14:23:33.921Z,2688.00
2022-07-28T14:24:28.849Z,2604.00
2022-07-28T14:25:44.215Z,2516.00
2022-07-28T14:26:36.888Z,2440.00
2022-07-28T14:27:29.819Z,2316.00
2022-07-28T14:28:28.814Z,2200.00
2022-07-28T14:29:28.791Z,2092.00
2022-07-28T14:30:28.783Z,1944.00
2022-07-28T14:31:28.913Z,1788.00
2022-07-28T14:32:28.758Z,1688.00
2022-07-28T14:33:28.767Z,1592.00
2022-07-28T14:34:34.348Z,1548.00
2022-07-28T14:35:28.731Z,1472.00
2022-07-28T14:36:28.718Z,1484.00
2022-07-28T14:37:28.703Z,1432.00
2022-07-28T14:38:51.926Z,1464.00
2022-07-28T14:39:29.704Z,1504.00
2022-07-28T14:40:28.697Z,1632.00
2022-07-28T14:41:28.760Z,1780.00
2022-07-28T14:42:28.649Z,2004.00
2022-07-28T14:43:28.648Z,2324.00
2022-07-28T14:44:28.624Z,2604.00
2022-07-28T14:45:33.647Z,2720.00
2022-07-28T14:46:30.052Z,2828.00
2022-07-28T14:47:45.318Z,2940.00
2022-07-28T14:48:29.591Z,2964.00
2022-07-28T14:49:28.727Z,2860.00
2022-07-28T14:50:28.568Z,2788.00
2022-07-28T14:51:28.553Z,2732.00
2022-07-28T14:52:28.542Z,2680.00
2022-07-28T14:53:28.536Z,2656.00
2022-07-28T14:54:28.622Z,2680.00
2022-07-28T14:55:28.511Z,2664.00
2022-07-28T14:56:33.515Z,2696.00
2022-07-28T14:57:48.159Z,2732.00
2022-07-28T14:58:29.481Z,2712.00
2022-07-28T14:59:28.565Z,2700.00
2022-07-28T15:00:28.449Z,2664.00
2022-07-28T15:01:28.462Z,2584.00
2022-07-28T15:02:29.789Z,2504.00
2022-07-28T15:03:30.722Z,2372.00
2022-07-28T15:04:29.406Z,2256.00
2022-07-28T15:05:28.400Z,2172.00
2022-07-28T15:06:28.388Z,2148.00
2022-07-28T15:07:33.405Z,2152.00
2022-07-28T15:08:29.462Z,2228.00
2022-07-28T15:09:28.352Z,2340.00
2022-07-28T15:10:28.340Z,2484.00
2022-07-28T15:11:28.331Z,2664.00
2022-07-28T15:12:28.318Z,2772.00
2022-07-28T15:13:28.562Z,2868.00
2022-07-28T15:14:28.296Z,2924.00
2022-07-28T15:15:28.286Z,2852.00
2022-07-28T15:16:28.497Z,2832.00
2022-07-28T15:17:28.272Z,2852.00
2022-07-28T15:18:33.570Z,2904.00
2022-07-28T15:19:28.244Z,2996.00
2022-07-28T15:20:28.231Z,2984.00
2022-07-28T15:21:30.871Z,2972.00
2022-07-28T15:22:29.215Z,2876.00
2022-07-28T15:23:28.210Z,2792.00
2022-07-28T15:24:28.188Z,2852.00
2022-07-28T15:25:28.178Z,3096.00
2022-07-28T15:26:28.165Z,3144.00
2022-07-28T15:27:33.091Z,3376.00
2022-07-28T15:28:29.236Z,3580.00
2022-07-28T15:29:35.542Z,3560.00
2022-07-28T15:30:28.123Z,3584.00
2022-07-28T15:31:29.543Z,3548.00
2022-07-28T15:32:28.569Z,3420.00
2022-07-28T15:33:28.123Z,3092.00
2022-07-28T15:34:28.085Z,2888.00
2022-07-28T15:35:28.106Z,2808.00
2022-07-28T15:36:29.111Z,2616.00
2022-07-28T15:37:28.150Z,2360.00
2022-07-28T15:38:28.109Z,2284.00
2022-07-28T15:39:28.046Z,2268.00
2022-07-28T15:40:33.035Z,2252.00
2022-07-28T15:41:28.009Z,2336.00
2022-07-28T15:42:27.993Z,2396.00
2022-07-28T15:43:27.991Z,2408.00
2022-07-28T15:44:27.970Z,2396.00
2022-07-28T15:45:27.961Z,2360.00
2022-07-28T15:46:27.987Z,2308.00
2022-07-28T15:47:27.940Z,2212.00
2022-07-28T15:48:27.936Z,2140.00
2022-07-28T15:49:27.945Z,2028.00
2022-07-28T15:50:27.910Z,1952.00
2022-07-28T15:51:32.921Z,1980.00
2022-07-28T15:52:27.895Z,1964.00
2022-07-28T15:53:27.892Z,1980.00
2022-07-28T15:54:27.863Z,2012.00
2022-07-28T15:55:27.861Z,2060.00
2022-07-28T15:56:27.841Z,2128.00
2022-07-28T15:57:37.786Z,2156.00
2022-07-28T15:58:28.828Z,2100.00
2022-07-28T15:59:49.476Z,1992.00
2022-07-28T16:00:28.795Z,1836.00
2022-07-28T16:01:27.881Z,1776.00
2022-07-28T16:02:32.825Z,1736.00
2022-07-28T16:03:27.978Z,1540.00
2022-07-28T16:04:27.753Z,1512.00
2022-07-28T16:05:27.743Z,1512.00